Time;durP1;ratioP1;P1;durP2;ratioP2;P2;SDS_P1;SDS_P2;PMS_P1;PMS_P2;Temp;Humidity;BMP_temperature;BMP_pressure;BME280_temperature;BME280_humidity;BME280_pressure;Samples;Min_cycle;Max_cycle;Signal;HPM_P1;HPM_P2
2022/12/13 00:03:16;;;;;;;15.90;9.30;;;;;;;-0.88;81.79;99003.04;208559;1279;126606;-63
2022/12/13 00:08:20;;;;;;;16.30;9.20;;;;;;;-0.90;81.68;99007.73;208493;1289;141059;-70
2022/12/13 00:13:24;;;;;;;17.80;11.70;;;;;;;-0.87;81.77;99012.09;210668;1283;139910;-69
2022/12/13 00:18:29;;;;;;;11.90;9.10;;;;;;;-0.87;81.72;99012.09;210396;1295;142814;-66
2022/12/13 00:23:34;;;;;;;15.70;8.80;;;;;;;-0.89;81.79;99018.77;209379;1292;140670;-69
2022/12/13 00:28:40;;;;;;;18.40;12.10;;;;;;;-0.85;81.54;99023.70;210665;1293;141664;-66
2022/12/13 00:33:45;;;;;;;22.10;13.60;;;;;;;-0.83;81.75;99024.50;210664;1295;140033;-64
2022/12/13 00:38:59;;;;;;;13.70;10.80;;;;;;;-0.87;81.69;99027.23;210715;1292;140951;-64
2022/12/13 00:44:04;;;;;;;24.00;19.50;;;;;;;-0.91;81.43;99026.70;210655;1292;235482;-67
2022/12/13 00:49:10;;;;;;;16.40;10.60;;;;;;;-0.88;81.18;99027.08;210464;1300;140792;-66
2022/12/13 00:54:15;;;;;;;23.00;13.10;;;;;;;-0.91;81.45;99033.16;210487;1292;139520;-66
2022/12/13 00:59:20;;;;;;;22.30;10.70;;;;;;;-0.98;81.24;99036.90;210415;1292;140359;-65
2022/12/13 01:04:23;;;;;;;12.80;9.00;;;;;;;-0.99;81.00;99038.44;210468;1295;139659;-68
2022/12/13 01:09:29;;;;;;;12.60;9.60;;;;;;;-1.01;81.32;99042.48;210595;1292;139445;-68
2022/12/13 01:14:34;;;;;;;13.70;8.70;;;;;;;-1.03;81.34;99037.73;210692;1292;139204;-68
2022/12/13 01:19:38;;;;;;;14.70;9.30;;;;;;;-1.02;81.16;99039.36;210510;1286;142713;-68
2022/12/13 01:24:43;;;;;;;15.00;11.10;;;;;;;-1.01;81.23;99041.70;210489;1292;140649;-69
2022/12/13 01:29:48;;;;;;;14.10;8.90;;;;;;;-1.07;81.17;99041.65;207717;1295;139215;-64
2022/12/13 01:34:52;;;;;;;13.20;9.20;;;;;;;-1.18;81.10;99041.82;210209;1292;139756;-64
2022/12/13 01:39:58;;;;;;;14.60;10.50;;;;;;;-1.17;81.17;99040.64;210450;1292;189439;-66
2022/12/13 01:45:17;;;;;;;16.20;11.00;;;;;;;-1.13;81.03;99040.02;210616;1292;142917;-64
2022/12/13 01:50:32;;;;;;;15.20;9.90;;;;;;;-1.15;81.40;99044.84;210543;1284;140197;-68
2022/12/13 01:55:40;;;;;;;12.50;8.70;;;;;;;-1.24;80.82;99055.30;207323;1281;141051;-68
2022/12/13 02:00:47;;;;;;;18.50;13.50;;;;;;;-1.30;80.87;99056.23;210457;1295;141151;-68
2022/12/13 02:06:11;;;;;;;10.90;8.60;;;;;;;-1.38;80.91;99063.30;209580;1279;140521;-67
2022/12/13 02:11:16;;;;;;;11.40;8.30;;;;;;;-1.40;80.99;99060.48;210084;1285;140460;-64
2022/12/13 02:16:41;;;;;;;12.60;8.80;;;;;;;-1.40;81.06;99065.23;210407;1292;139859;-63
2022/12/13 02:21:51;;;;;;;12.60;7.60;;;;;;;-1.43;81.04;99060.43;210590;1291;140122;-65
2022/12/13 02:27:13;;;;;;;14.90;8.80;;;;;;;-1.46;81.16;99062.11;210639;1292;139639;-66
2022/12/13 02:32:47;;;;;;;13.10;8.80;;;;;;;-1.44;81.00;99072.00;210759;1291;141206;-68
2022/12/13 02:38:09;;;;;;;11.30;9.50;;;;;;;-1.40;80.88;99069.13;210639;1299;141315;-67
2022/12/13 02:43:42;;;;;;;10.50;7.70;;;;;;;-1.41;80.92;99072.05;210693;1292;139110;-66
2022/12/13 02:48:51;;;;;;;28.80;14.50;;;;;;;-1.48;80.93;99077.02;210440;1292;141065;-65
2022/12/13 02:53:56;;;;;;;;;;;;;;;-1.49;80.80;99079.81;210721;1294;139993;-65
2022/12/13 02:59:09;;;;;;;17.30;8.50;;;;;;;-1.54;81.13;99086.81;211271;1286;125287;-64
2022/12/13 03:10:43;;;;;;;10.80;6.90;;;;;;;-1.60;80.87;99092.58;210559;1292;139107;-65
2022/12/13 03:15:52;;;;;;;;;;;;;;;-1.57;80.94;99092.69;210327;1294;140028;-64
2022/12/13 03:21:01;;;;;;;6.60;5.90;;;;;;;-1.63;80.94;99092.36;211474;1300;126684;-64
2022/12/13 03:26:12;;;;;;;10.40;6.90;;;;;;;-1.70;80.82;99092.88;208870;1298;138580;-64
2022/12/13 03:31:16;;;;;;;8.90;6.20;;;;;;;-1.68;80.89;99089.84;210558;1292;139822;-66
2022/12/13 03:36:21;;;;;;;8.60;6.10;;;;;;;-1.66;80.76;99094.07;210633;1292;140580;-64
2022/12/13 03:41:30;;;;;;;12.20;6.90;;;;;;;-1.69;80.91;99094.05;210362;1295;139519;-65
2022/12/13 03:46:34;;;;;;;13.20;9.40;;;;;;;-1.66;80.66;99093.91;210095;1298;139976;-66
2022/12/13 03:51:40;;;;;;;7.10;4.00;;;;;;;-1.64;80.54;99095.80;209125;1292;155001;-66
2022/12/13 03:56:45;;;;;;;10.10;5.30;;;;;;;-1.70;80.63;99098.66;210545;1294;139791;-67
2022/12/13 04:01:50;;;;;;;7.80;5.60;;;;;;;-1.84;81.14;99101.52;210252;1292;141147;-65
2022/12/13 04:06:54;;;;;;;10.60;6.80;;;;;;;-1.89;81.03;99108.66;207543;1286;141118;-65
2022/12/13 04:17:22;;;;;;;6.30;4.70;;;;;;;-2.01;80.72;99108.73;210787;1292;139718;-63
2022/12/13 04:22:27;;;;;;;9.00;6.90;;;;;;;-2.05;80.11;99107.52;210688;1298;139333;-65
2022/12/13 04:27:32;;;;;;;13.90;7.60;;;;;;;-1.98;80.06;99114.38;210694;1292;139808;-65
2022/12/13 04:32:36;;;;;;;6.30;5.30;;;;;;;-1.96;79.77;99112.05;210663;1292;138753;-66
2022/12/13 04:37:41;;;;;;;8.10;5.50;;;;;;;-1.98;79.88;99112.80;210625;1298;140761;-66
2022/12/13 04:42:46;;;;;;;9.80;6.30;;;;;;;-2.02;79.82;99111.84;210572;1292;140362;-66
2022/12/13 04:47:57;;;;;;;6.90;4.80;;;;;;;-2.01;79.46;99117.00;210710;1292;248639;-65
2022/12/13 04:53:02;;;;;;;8.20;7.30;;;;;;;-2.10;79.53;99120.23;210615;1292;138575;-64
2022/12/13 04:58:07;;;;;;;7.60;5.60;;;;;;;-2.14;79.81;99121.55;210582;1292;139420;-65
2022/12/13 05:03:11;;;;;;;7.30;5.30;;;;;;;-2.17;79.85;99129.54;210645;1294;139678;-66
2022/12/13 05:08:15;;;;;;;6.90;6.10;;;;;;;-2.24;79.30;99138.20;209421;1279;141239;-66
2022/12/13 05:13:20;;;;;;;6.90;4.30;;;;;;;-2.35;79.54;99137.40;208699;1291;139403;-67
2022/12/13 05:18:25;;;;;;;9.20;5.90;;;;;;;-2.40;79.60;99137.92;210650;1279;140679;-63
2022/12/13 05:23:30;;;;;;;7.60;5.70;;;;;;;-2.45;79.53;99140.88;210772;1291;140147;-66
2022/12/13 05:28:34;;;;;;;10.10;7.00;;;;;;;-2.50;79.51;99150.48;209199;1286;140331;-63
2022/12/13 05:33:38;;;;;;;8.20;6.80;;;;;;;-2.54;79.35;99150.95;208285;1285;141694;-66
2022/12/13 05:38:42;;;;;;;9.80;7.00;;;;;;;-2.58;79.67;99145.83;210822;1291;139417;-69
2022/12/13 05:43:46;;;;;;;6.30;5.10;;;;;;;-2.62;79.67;99146.31;210676;1292;139816;-67
2022/12/13 05:48:50;;;;;;;10.00;6.80;;;;;;;-2.62;79.57;99150.59;210499;1278;140259;-64
2022/12/13 05:53:54;;;;;;;9.20;6.60;;;;;;;-2.57;79.41;99149.94;210654;1292;139856;-64
2022/12/13 05:58:59;;;;;;;8.40;6.20;;;;;;;-2.57;79.32;99151.86;210680;1298;140430;-64
2022/12/13 06:04:03;;;;;;;9.30;6.30;;;;;;;-2.64;79.35;99159.92;210652;1290;141096;-68
2022/12/13 06:09:06;;;;;;;7.60;5.60;;;;;;;-2.68;79.06;99166.57;208495;1282;138957;-67
2022/12/13 06:14:11;;;;;;;8.10;4.40;;;;;;;-2.74;79.12;99173.33;209110;1291;140295;-65
2022/12/13 06:19:26;;;;;;;5.70;4.50;;;;;;;-2.81;79.45;99168.71;210734;1292;139394;-64
2022/12/13 06:24:31;;;;;;;6.80;4.10;;;;;;;-2.88;79.49;99171.73;210586;1292;140427;-64
2022/12/13 06:29:36;;;;;;;10.90;5.50;;;;;;;-2.93;79.03;99173.58;210564;1292;139825;-64
2022/12/13 06:34:41;;;;;;;7.00;4.50;;;;;;;-2.95;78.76;99179.19;210543;1291;139663;-65
2022/12/13 06:39:46;;;;;;;5.80;5.10;;;;;;;-3.03;78.84;99181.13;210649;1292;139576;-64
2022/12/13 06:44:51;;;;;;;6.20;4.60;;;;;;;-3.12;78.65;99182.19;210485;1292;141716;-63
2022/12/13 06:49:59;;;;;;;4.20;3.50;;;;;;;-3.07;78.84;99185.11;210706;1289;244423;-64
2022/12/13 06:55:09;;;;;;;7.10;3.50;;;;;;;-3.06;79.01;99188.86;210695;1286;138688;-63
2022/12/13 07:00:14;;;;;;;5.20;4.70;;;;;;;-3.04;78.74;99191.06;210695;1290;139022;-64
2022/12/13 07:05:26;;;;;;;6.70;4.70;;;;;;;-2.99;78.51;99201.88;210757;1299;140207;-64
2022/12/13 07:10:32;;;;;;;5.90;4.70;;;;;;;-3.03;78.46;99211.67;210759;1292;139919;-64
2022/12/13 07:15:37;;;;;;;4.20;3.10;;;;;;;-3.03;78.66;99216.39;210574;1292;139002;-66
2022/12/13 07:20:42;;;;;;;6.90;4.40;;;;;;;-3.01;78.41;99222.40;210720;1292;140128;-65
2022/12/13 07:25:54;;;;;;;5.40;4.50;;;;;;;-2.91;78.19;99219.26;210553;1293;140992;-65
2022/12/13 07:31:03;;;;;;;4.30;3.90;;;;;;;-2.92;78.25;99221.83;210763;1292;139570;-65
2022/12/13 07:36:12;;;;;;;3.90;2.90;;;;;;;-2.87;78.39;99227.26;210693;1292;141400;-65
2022/12/13 07:41:16;;;;;;;7.70;5.30;;;;;;;-2.81;78.23;99231.96;210209;1291;139837;-64
2022/12/13 07:46:26;;;;;;;7.70;4.70;;;;;;;-2.74;77.85;99235.85;208881;1286;139421;-65
2022/12/13 07:51:37;;;;;;;5.90;4.80;;;;;;;-2.70;78.15;99242.45;210164;1286;139257;-66
2022/12/13 07:56:42;;;;;;;7.10;5.80;;;;;;;-2.65;78.29;99244.91;209149;1298;140545;-63
2022/12/13 08:01:46;;;;;;;5.80;5.00;;;;;;;-2.61;78.10;99246.55;207315;1286;140425;-67
2022/12/13 08:06:51;;;;;;;7.50;6.00;;;;;;;-2.53;78.09;99252.62;209735;1295;141827;-64
2022/12/13 08:11:57;;;;;;;6.00;5.30;;;;;;;-2.41;77.93;99253.55;210878;1298;140498;-64
2022/12/13 08:17:04;;;;;;;6.40;5.00;;;;;;;-2.38;77.84;99258.84;209371;1298;223679;-64
2022/12/13 08:22:13;;;;;;;11.40;7.20;;;;;;;-2.37;77.68;99258.06;210705;1298;139908;-64
2022/12/13 08:27:27;;;;;;;9.80;6.50;;;;;;;-2.33;77.85;99261.35;210600;1291;140041;-64
2022/12/13 08:32:32;;;;;;;7.50;4.90;;;;;;;-2.23;77.48;99269.77;210801;1292;140871;-67
2022/12/13 08:37:37;;;;;;;8.40;5.60;;;;;;;-2.20;77.46;99272.13;210854;1300;139741;-67
2022/12/13 08:42:41;;;;;;;8.00;6.00;;;;;;;-2.13;77.45;99270.08;210629;1298;139583;-66
2022/12/13 08:47:46;;;;;;;9.90;6.80;;;;;;;-2.07;77.10;99267.36;210690;1298;140694;-67
2022/12/13 08:52:51;;;;;;;12.70;7.20;;;;;;;-2.06;76.80;99268.25;210469;1292;139393;-66
2022/12/13 08:57:56;;;;;;;16.20;7.10;;;;;;;-2.02;76.59;99276.41;210377;1299;140691;-67
2022/12/13 09:03:04;;;;;;;;;;;;;;;-2.03;76.54;99285.88;210638;1292;139441;-63
2022/12/13 09:08:13;;;;;;;7.60;5.80;;;;;;;-2.14;76.22;99288.51;211379;1290;125676;-64
2022/12/13 09:13:31;;;;;;;11.70;7.00;;;;;;;-2.17;76.21;99290.38;210813;1298;139238;-64
2022/12/13 09:18:37;;;;;;;8.70;6.30;;;;;;;-2.06;76.08;99293.75;210815;1300;141119;-64
2022/12/13 09:23:42;;;;;;;7.30;5.10;;;;;;;-1.78;76.05;99287.99;210675;1298;139295;-64
2022/12/13 09:28:49;;;;;;;8.80;5.30;;;;;;;-1.52;75.95;99284.52;209616;1286;139110;-63
2022/12/13 09:33:55;;;;;;;9.40;7.70;;;;;;;-1.27;75.86;99281.00;210730;1298;140426;-64
2022/12/13 09:39:00;;;;;;;12.90;7.50;;;;;;;-0.74;75.68;99284.42;210694;1299;141088;-65
2022/12/13 09:44:13;;;;;;;12.10;7.60;;;;;;;-0.34;75.39;99282.46;210569;1292;141116;-65
2022/12/13 09:49:43;;;;;;;11.40;8.00;;;;;;;-0.23;75.09;99288.73;210780;1298;140641;-67
2022/12/13 09:54:56;;;;;;;;;;;;;;;-0.35;74.79;99291.38;210695;1290;140660;-65
2022/12/13 10:00:10;;;;;;;9.10;6.50;;;;;;;-0.55;74.70;99295.59;211367;1292;127321;-65
2022/12/13 10:05:25;;;;;;;9.80;8.10;;;;;;;-0.75;74.70;99292.41;210740;1292;140701;-65
2022/12/13 10:10:43;;;;;;;14.20;7.50;;;;;;;-0.74;75.15;99289.50;210858;1285;139088;-65
2022/12/13 10:16:05;;;;;;;9.50;7.40;;;;;;;-0.78;74.71;99282.52;210597;1298;141202;-65
2022/12/13 10:21:21;;;;;;;11.20;8.30;;;;;;;-0.91;74.50;99283.84;210027;1298;140063;-64
2022/12/13 10:26:36;;;;;;;10.60;7.50;;;;;;;-0.94;74.97;99280.20;210793;1274;220297;-65
2022/12/13 10:31:50;;;;;;;12.80;6.90;;;;;;;-0.95;74.89;99281.28;210691;1291;140841;-65
2022/12/13 10:36:55;;;;;;;14.60;7.90;;;;;;;-0.87;74.96;99282.27;210597;1292;140551;-65
2022/12/13 10:42:13;;;;;;;13.40;7.90;;;;;;;-0.72;74.51;99281.80;210798;1292;140089;-65
2022/12/13 10:47:26;;;;;;;11.00;6.50;;;;;;;-0.76;74.31;99284.20;210726;1298;245490;-65
2022/12/13 10:52:40;;;;;;;17.10;9.80;;;;;;;-0.89;74.47;99281.36;210535;1292;140811;-66
2022/12/13 10:57:56;;;;;;;14.30;9.30;;;;;;;-0.87;74.50;99278.84;210723;1298;139768;-68
2022/12/13 11:03:01;;;;;;;20.40;12.10;;;;;;;-0.73;74.42;99275.26;210757;1300;139610;-69
2022/12/13 11:08:21;;;;;;;14.00;9.20;;;;;;;-0.48;74.45;99269.16;210702;1291;139793;-67
2022/12/13 11:13:51;;;;;;;9.10;7.80;;;;;;;0.09;74.59;99265.98;210576;1295;139558;-67
2022/12/13 11:19:01;;;;;;;18.30;11.60;;;;;;;0.52;74.04;99264.77;210572;1285;139521;-66
2022/12/13 11:24:07;;;;;;;16.20;10.50;;;;;;;0.84;73.73;99262.84;210503;1292;140115;-67
2022/12/13 11:29:50;;;;;;;16.70;10.10;;;;;;;1.03;73.09;99267.58;210268;1292;139703;-67
2022/12/13 11:35:02;;;;;;;16.10;8.90;;;;;;;0.69;72.11;99262.86;210744;1285;139313;-65
2022/12/13 11:40:31;;;;;;;16.20;10.70;;;;;;;0.39;72.28;99267.83;210672;1298;140217;-65
2022/12/13 11:45:51;;;;;;;16.90;11.10;;;;;;;0.18;72.47;99272.77;210433;1292;140628;-67
2022/12/13 11:50:58;;;;;;;16.10;10.50;;;;;;;0.00;72.55;99276.81;210803;1292;140063;-67
2022/12/13 11:56:11;;;;;;;19.40;13.20;;;;;;;-0.18;72.55;99280.80;210642;1292;139675;-67
2022/12/13 12:01:26;;;;;;;17.60;11.10;;;;;;;-0.24;72.76;99287.89;210446;1292;139278;-66
2022/12/13 12:06:54;;;;;;;22.90;16.60;;;;;;;-0.24;72.60;99295.02;209616;1295;139784;-66
2022/12/13 12:12:24;;;;;;;10.70;8.10;;;;;;;-0.35;72.94;99292.73;209355;1285;140497;-68
2022/12/13 12:17:29;;;;;;;21.30;13.00;;;;;;;-0.47;72.88;99299.00;210578;1292;139720;-63
2022/12/13 12:22:53;;;;;;;15.70;11.20;;;;;;;-0.58;73.12;99297.02;209264;1295;139293;-66
2022/12/13 12:28:25;;;;;;;22.60;13.40;;;;;;;-0.65;72.78;99292.20;210687;1292;139925;-64
2022/12/13 12:34:22;;;;;;;17.20;9.40;;;;;;;-0.59;73.02;99294.98;210538;1295;140095;-68
2022/12/13 12:40:01;;;;;;;15.20;11.20;;;;;;;-0.58;72.97;99292.61;210103;1292;139043;-68
2022/12/13 12:45:42;;;;;;;18.80;12.20;;;;;;;-0.68;72.73;99292.05;210672;1292;141458;-65
2022/12/13 12:51:12;;;;;;;20.90;12.60;;;;;;;-0.80;72.98;99295.25;209570;1300;144293;-66
2022/12/13 12:56:27;;;;;;;16.40;11.30;;;;;;;-0.88;72.74;99298.77;210418;1295;141316;-65
2022/12/13 13:01:53;;;;;;;12.30;8.20;;;;;;;-1.02;72.50;99308.69;210286;1294;141755;-62
2022/12/13 13:07:05;;;;;;;17.10;12.80;;;;;;;-1.13;72.57;99315.69;210466;1295;222578;-63
2022/12/13 13:12:29;;;;;;;12.20;8.10;;;;;;;-1.11;72.71;99314.64;210539;1295;140659;-68
2022/12/13 13:17:34;;;;;;;18.60;10.80;;;;;;;-1.19;72.42;99321.59;210098;1295;139633;-67
2022/12/13 13:22:38;;;;;;;17.80;11.70;;;;;;;-1.31;72.36;99327.80;210334;1301;143834;-66
2022/12/13 13:27:52;;;;;;;13.60;11.30;;;;;;;-1.42;72.91;99334.45;210274;1292;140480;-64
2022/12/13 13:32:58;;;;;;;18.70;12.40;;;;;;;-1.43;73.26;99344.89;210482;1295;140534;-66
2022/12/13 13:38:03;;;;;;;18.60;9.80;;;;;;;-1.50;73.28;99352.38;210203;1295;140164;-68
2022/12/13 13:43:13;;;;;;;26.00;16.40;;;;;;;-1.57;73.44;99360.55;208831;1284;556121;-66
2022/12/13 13:48:49;;;;;;;17.00;13.10;;;;;;;-1.57;73.58;99365.58;210431;1295;140056;-67
2022/12/13 13:54:17;;;;;;;21.90;14.30;;;;;;;-1.60;73.40;99372.90;210262;1297;141866;-67
2022/12/13 13:59:34;;;;;;;26.80;16.40;;;;;;;-1.66;73.77;99376.85;210439;1295;139973;-66
2022/12/13 14:05:18;;;;;;;19.80;12.10;;;;;;;-1.76;73.88;99375.61;209912;1289;139495;-67
2022/12/13 14:10:30;;;;;;;16.20;11.00;;;;;;;-1.86;73.82;99377.05;207682;1294;223479;-66
2022/12/13 14:15:46;;;;;;;18.00;12.30;;;;;;;-2.06;73.68;99381.34;210487;1287;140211;-63
2022/12/13 14:21:37;;;;;;;20.10;13.50;;;;;;;-2.22;73.85;99375.23;210194;1301;140984;-63
2022/12/13 14:27:17;;;;;;;20.70;13.90;;;;;;;-2.28;74.06;99378.80;210488;1294;246292;-63
2022/12/13 14:32:29;;;;;;;15.10;11.30;;;;;;;-2.37;74.39;99374.84;209546;1285;234560;-66
2022/12/13 14:37:36;;;;;;;20.90;12.30;;;;;;;-2.44;74.60;99380.89;210426;1295;140121;-67
2022/12/13 14:42:41;;;;;;;17.00;11.70;;;;;;;-2.48;74.71;99383.86;210259;1286;139557;-69
2022/12/13 14:47:53;;;;;;;20.80;11.90;;;;;;;-2.55;74.90;99388.15;210314;1291;140011;-68
2022/12/13 14:53:02;;;;;;;22.10;12.20;;;;;;;-2.55;74.85;99385.80;210272;1287;140316;-67
2022/12/13 14:58:19;;;;;;;18.50;11.80;;;;;;;-2.55;74.84;99384.49;210293;1295;140459;-68
2022/12/13 15:03:25;;;;;;;15.20;12.20;;;;;;;-2.55;74.98;99386.45;210590;1293;141769;-62
2022/12/13 15:08:33;;;;;;;22.40;12.50;;;;;;;-2.59;75.14;99389.84;210461;1287;140577;-68
2022/12/13 15:13:41;;;;;;;23.90;13.80;;;;;;;-2.61;75.36;99397.16;210328;1294;139719;-65
2022/12/13 15:18:46;;;;;;;18.00;11.50;;;;;;;-2.66;75.24;99402.40;210318;1295;139894;-68
2022/12/13 15:23:56;;;;;;;18.40;10.70;;;;;;;-2.75;75.23;99407.09;210313;1294;140284;-67
2022/12/13 15:29:03;;;;;;;24.80;14.00;;;;;;;-2.77;75.41;99407.88;210132;1295;140268;-68
2022/12/13 15:34:26;;;;;;;23.90;15.00;;;;;;;-2.74;75.39;99405.27;210398;1285;141027;-67
2022/12/13 15:39:38;;;;;;;17.50;11.30;;;;;;;-2.73;75.42;99409.02;210333;1294;139926;-63
2022/12/13 15:45:04;;;;;;;26.90;12.10;;;;;;;-2.75;75.77;99406.84;210421;1295;139978;-65
2022/12/13 15:50:35;;;;;;;19.70;12.60;;;;;;;-2.78;75.82;99410.80;210375;1301;141527;-64
2022/12/13 15:55:41;;;;;;;20.90;11.70;;;;;;;-2.84;75.71;99414.50;210347;1295;140931;-64
2022/12/13 16:00:48;;;;;;;23.50;11.90;;;;;;;-2.89;75.88;99415.75;210312;1301;140235;-66
2022/12/13 16:05:56;;;;;;;19.30;10.00;;;;;;;-2.93;75.76;99418.52;210198;1295;246797;-63
2022/12/13 16:11:01;;;;;;;24.30;14.20;;;;;;;-2.92;75.88;99417.33;209799;1295;140149;-63
2022/12/13 16:16:18;;;;;;;19.70;12.20;;;;;;;-2.98;75.87;99418.59;210231;1293;139905;-62
2022/12/13 16:21:30;;;;;;;19.90;11.80;;;;;;;-3.03;76.06;99426.23;210566;1294;140029;-63
2022/12/13 16:26:34;;;;;;;18.50;11.30;;;;;;;-3.06;76.32;99426.36;210189;1284;140065;-63
2022/12/13 16:31:38;;;;;;;23.00;11.60;;;;;;;-3.15;76.02;99424.76;210139;1295;141807;-62
2022/12/13 16:36:44;;;;;;;19.70;13.50;;;;;;;-3.16;75.87;99424.58;210215;1285;141243;-63
2022/12/13 16:41:51;;;;;;;27.30;14.20;;;;;;;-3.16;76.16;99425.10;210326;1295;247813;-62
2022/12/13 16:46:56;;;;;;;20.00;12.30;;;;;;;-3.18;76.35;99425.77;210087;1278;140448;-63
2022/12/13 16:52:20;;;;;;;22.30;13.20;;;;;;;-3.23;76.40;99426.48;210369;1294;139658;-68
2022/12/13 16:57:25;;;;;;;17.60;12.60;;;;;;;-3.27;76.48;99427.05;210398;1295;140189;-62
2022/12/13 17:02:29;;;;;;;20.50;12.30;;;;;;;-3.32;76.58;99427.08;210152;1291;140037;-67
2022/12/13 17:07:34;;;;;;;28.30;15.60;;;;;;;-3.37;76.54;99426.73;210234;1291;141016;-68
2022/12/13 17:12:37;;;;;;;22.20;14.20;;;;;;;-3.32;76.67;99425.67;210236;1293;141131;-67
2022/12/13 17:17:45;;;;;;;22.30;13.00;;;;;;;-3.28;76.63;99431.34;210320;1288;141807;-66
2022/12/13 17:22:51;;;;;;;21.40;12.30;;;;;;;-3.28;76.80;99440.92;210351;1295;139957;-67
2022/12/13 17:27:55;;;;;;;27.40;14.70;;;;;;;-3.33;76.88;99449.39;210311;1294;139514;-64
2022/12/13 17:33:07;;;;;;;21.20;14.90;;;;;;;-3.37;77.12;99450.52;210482;1295;139907;-66
2022/12/13 17:38:14;;;;;;;25.50;12.90;;;;;;;-3.39;77.25;99450.55;210361;1295;139332;-67
2022/12/13 17:43:26;;;;;;;20.30;14.70;;;;;;;-3.33;77.16;99445.91;210302;1287;251571;-66
2022/12/13 17:48:44;;;;;;;26.50;17.50;;;;;;;-3.24;77.27;99446.36;210422;1285;141872;-64
2022/12/13 17:53:57;;;;;;;20.30;12.60;;;;;;;-3.22;77.52;99454.26;210150;1293;141615;-64
2022/12/13 17:59:05;;;;;;;23.30;14.70;;;;;;;-3.20;77.77;99459.68;210190;1295;139716;-66
2022/12/13 18:04:13;;;;;;;21.10;13.40;;;;;;;-3.17;77.87;99466.67;209470;1278;140432;-63
2022/12/13 18:09:18;;;;;;;22.40;13.50;;;;;;;-3.17;77.97;99465.99;210007;1298;140330;-69
2022/12/13 18:14:23;;;;;;;18.20;11.00;;;;;;;-3.22;77.72;99468.63;210389;1295;139691;-64
2022/12/13 18:19:30;;;;;;;25.50;12.70;;;;;;;-3.28;77.71;99467.66;210185;1295;139967;-64
2022/12/13 18:24:35;;;;;;;21.90;12.30;;;;;;;-3.24;77.60;99468.80;210149;1288;140460;-65
2022/12/13 18:29:41;;;;;;;30.00;13.90;;;;;;;-3.21;77.62;99469.36;210154;1293;140445;-66
2022/12/13 18:34:58;;;;;;;20.80;13.10;;;;;;;-3.26;77.41;99462.44;209983;1294;140397;-63
2022/12/13 18:40:05;;;;;;;20.60;12.00;;;;;;;-3.39;77.28;99463.72;210286;1294;139647;-64
2022/12/13 18:45:09;;;;;;;25.10;12.60;;;;;;;-3.52;77.09;99466.45;210407;1287;140014;-67
2022/12/13 18:50:15;;;;;;;20.80;11.50;;;;;;;-3.67;77.17;99480.41;210159;1295;139912;-66
2022/12/13 18:55:19;;;;;;;26.20;14.50;;;;;;;-3.81;77.09;99486.83;209063;1277;140751;-64
2022/12/13 19:00:26;;;;;;;27.40;12.50;;;;;;;-3.81;77.43;99488.03;210197;1295;141929;-64
2022/12/13 19:05:29;;;;;;;28.20;12.90;;;;;;;-3.74;77.43;99494.64;209624;1278;140916;-63
2022/12/13 19:10:33;;;;;;;20.20;10.50;;;;;;;-3.71;77.73;99495.79;209595;1280;140784;-64
2022/12/13 19:15:39;;;;;;;29.00;15.50;;;;;;;-3.73;77.94;99498.57;208888;1294;140575;-67
2022/12/13 19:20:49;;;;;;;26.80;14.70;;;;;;;-3.69;78.57;99501.14;210322;1294;140350;-67
2022/12/13 19:25:53;;;;;;;24.00;13.90;;;;;;;-3.63;78.74;99506.23;210216;1285;140356;-66
2022/12/13 19:30:57;;;;;;;34.70;17.10;;;;;;;-3.56;78.63;99510.59;210300;1279;140198;-69
2022/12/13 19:36:02;;;;;;;27.40;14.90;;;;;;;-3.43;78.68;99512.59;210245;1294;141355;-64
2022/12/13 19:41:13;;;;;;;38.70;19.50;;;;;;;-3.31;78.66;99505.52;210349;1286;141460;-69
2022/12/13 19:46:18;;;;;;;29.30;17.60;;;;;;;-3.23;78.82;99501.37;210323;1295;140105;-67
2022/12/13 19:51:23;;;;;;;35.00;21.10;;;;;;;-3.21;78.64;99503.92;210430;1285;140617;-68
2022/12/13 19:56:26;;;;;;;26.90;16.00;;;;;;;-3.20;78.69;99507.65;210285;1279;140024;-65
2022/12/13 20:01:31;;;;;;;30.70;16.40;;;;;;;-3.21;78.70;99510.96;210386;1294;141191;-66
2022/12/13 20:06:36;;;;;;;32.90;17.80;;;;;;;-3.21;78.66;99517.22;210347;1295;140456;-69
2022/12/13 20:11:40;;;;;;;31.60;17.40;;;;;;;-3.13;78.55;99514.35;210342;1294;140751;-63
2022/12/13 20:16:44;;;;;;;29.80;15.00;;;;;;;-3.11;78.68;99515.64;210469;1295;140979;-64
2022/12/13 20:21:48;;;;;;;35.90;18.80;;;;;;;-3.07;78.83;99518.08;210342;1294;141165;-68
2022/12/13 20:27:00;;;;;;;27.70;14.90;;;;;;;-3.04;78.94;99519.83;210328;1302;139359;-68
2022/12/13 20:32:05;;;;;;;29.80;16.70;;;;;;;-3.04;78.88;99525.34;210305;1285;139497;-66
2022/12/13 20:37:11;;;;;;;28.10;15.50;;;;;;;-3.07;78.79;99520.23;210178;1285;150196;-66
2022/12/13 20:42:16;;;;;;;33.20;16.90;;;;;;;-3.06;78.52;99513.05;209023;1301;140282;-66
2022/12/13 20:47:21;;;;;;;31.30;18.30;;;;;;;-2.99;78.64;99507.70;209888;1301;140627;-63
2022/12/13 20:52:25;;;;;;;30.10;16.20;;;;;;;-2.97;78.76;99509.77;210304;1295;140165;-63
2022/12/13 20:57:29;;;;;;;33.70;17.80;;;;;;;-2.98;78.82;99511.05;210356;1295;143206;-65
2022/12/13 21:02:33;;;;;;;28.10;15.00;;;;;;;-2.96;78.85;99514.55;210090;1295;140528;-63
2022/12/13 21:13:01;;;;;;;31.50;19.60;;;;;;;-3.03;78.66;99522.51;210298;1295;243307;-63
2022/12/13 21:18:05;;;;;;;30.40;16.90;;;;;;;-2.95;78.61;99526.26;210276;1295;140934;-63
2022/12/13 21:23:09;;;;;;;26.70;14.90;;;;;;;-2.97;78.54;99526.30;210234;1301;139764;-64
2022/12/13 21:28:13;;;;;;;27.10;15.30;;;;;;;-3.03;78.45;99527.83;210250;1293;140185;-65
2022/12/13 21:33:17;;;;;;;31.60;16.00;;;;;;;-3.13;78.43;99530.67;210511;1285;141141;-66
2022/12/13 21:38:22;;;;;;;36.60;18.00;;;;;;;-3.21;78.52;99534.72;210401;1294;140372;-63
2022/12/13 21:43:36;;;;;;;31.30;15.60;;;;;;;-3.26;78.45;99538.36;210404;1295;140099;-63
2022/12/13 21:48:43;;;;;;;31.00;15.50;;;;;;;-3.22;78.62;99541.91;210352;1296;140341;-65
2022/12/13 21:53:50;;;;;;;29.70;15.40;;;;;;;-3.15;78.77;99539.91;210275;1300;141610;-68
2022/12/13 22:04:20;;;;;;;29.30;16.70;;;;;;;-3.12;78.79;99535.44;210441;1294;141440;-63
2022/12/13 22:09:24;;;;;;;33.20;16.10;;;;;;;-3.16;78.87;99531.77;210573;1294;139568;-63
2022/12/13 22:14:28;;;;;;;27.80;16.90;;;;;;;-3.18;78.65;99536.15;210164;1294;140359;-66
2022/12/13 22:19:32;;;;;;;33.40;16.20;;;;;;;-3.24;78.73;99535.20;210288;1284;142438;-66
2022/12/13 22:24:37;;;;;;;34.80;17.60;;;;;;;-3.25;78.56;99538.44;210165;1295;140583;-64
2022/12/13 22:29:42;;;;;;;40.20;16.40;;;;;;;-3.21;78.72;99544.42;209644;1295;141195;-66
2022/12/13 22:34:47;;;;;;;32.40;18.80;;;;;;;-3.21;78.75;99543.80;210229;1293;140553;-67
2022/12/13 22:39:52;;;;;;;34.10;16.30;;;;;;;-3.20;78.85;99545.71;210371;1295;139909;-64
2022/12/13 22:44:56;;;;;;;28.70;16.80;;;;;;;-3.19;79.09;99544.48;209106;1293;139631;-63
2022/12/13 22:50:02;;;;;;;29.70;16.80;;;;;;;-3.20;78.85;99538.67;210282;1282;230819;-66
2022/12/13 22:55:07;;;;;;;35.80;18.60;;;;;;;-3.22;79.02;99529.81;209751;1291;140460;-67
2022/12/13 23:00:12;;;;;;;32.90;16.50;;;;;;;-3.20;78.89;99527.88;209754;1301;141000;-62
2022/12/13 23:05:15;;;;;;;36.40;21.50;;;;;;;-3.17;78.93;99529.31;210417;1295;139983;-64
2022/12/13 23:15:42;;;;;;;41.10;22.70;;;;;;;-3.27;78.90;99523.66;209277;1284;139443;-61
2022/12/13 23:20:51;;;;;;;40.30;22.90;;;;;;;-3.33;78.71;99514.09;210438;1295;246638;-64
2022/12/13 23:25:55;;;;;;;33.50;20.40;;;;;;;-3.40;78.41;99511.06;210120;1295;140380;-65
2022/12/13 23:31:01;;;;;;;24.60;16.20;;;;;;;-3.41;78.41;99504.27;209238;1295;139711;-64
2022/12/13 23:36:09;;;;;;;17.70;9.50;;;;;;;-3.44;78.49;99499.14;210330;1295;141242;-65
2022/12/13 23:41:25;;;;;;;35.60;18.90;;;;;;;-3.50;78.54;99500.48;210275;1300;145233;-64
2022/12/13 23:46:36;;;;;;;30.60;19.50;;;;;;;-3.42;78.74;99493.77;210201;1298;140534;-68
2022/12/13 23:51:41;;;;;;;39.00;20.60;;;;;;;-3.35;78.82;99496.21;210299;1301;140295;-63